createdAt,value
2018-12-20T00:00:55.723Z,7.50
2018-12-20T00:03:23.411Z,7.78
2018-12-20T00:05:51.449Z,8.25
2018-12-20T00:08:19.451Z,8.05
2018-12-20T00:10:47.161Z,7.30
2018-12-20T00:13:15.205Z,7.95
2018-12-20T00:15:42.869Z,8.55
2018-12-20T00:18:10.920Z,7.95
2018-12-20T00:20:38.874Z,8.07
2018-12-20T00:23:06.581Z,8.50
2018-12-20T00:25:34.511Z,7.43
2018-12-20T00:28:02.584Z,7.62
2018-12-20T00:30:30.823Z,8.40
2018-12-20T00:32:58.408Z,7.75
2018-12-20T00:35:26.559Z,7.80
2018-12-20T00:37:54.739Z,7.50
2018-12-20T00:40:22.472Z,8.00
2018-12-20T00:42:50.391Z,7.87
2018-12-20T00:45:18.472Z,8.20
2018-12-20T00:47:46.412Z,8.00
2018-12-20T00:50:14.444Z,7.75
2018-12-20T00:52:42.507Z,8.55
2018-12-20T00:55:10.554Z,7.93
2018-12-20T00:57:38.660Z,8.20
2018-12-20T01:00:07.934Z,5.68
2018-12-20T01:02:35.602Z,6.93
2018-12-20T01:05:04.309Z,8.80
2018-12-20T01:07:32.305Z,7.40
2018-12-20T01:10:00.072Z,6.60
2018-12-20T01:12:28.025Z,5.90
2018-12-20T01:14:56.049Z,6.68
2018-12-20T01:17:24.075Z,7.05
2018-12-20T01:19:51.939Z,5.90
2018-12-20T01:22:19.961Z,6.12
2018-12-20T01:24:47.936Z,6.62
2018-12-20T01:27:15.772Z,5.37
2018-12-20T01:29:44.188Z,5.97
2018-12-20T01:32:14.185Z,7.85
2018-12-20T01:34:41.720Z,5.82
2018-12-20T01:37:10.093Z,6.07
2018-12-20T01:39:37.747Z,6.15
2018-12-20T01:42:05.831Z,5.10
2018-12-20T01:44:33.389Z,6.75
2018-12-20T01:47:02.052Z,7.15
2018-12-20T01:49:30.344Z,6.93
2018-12-20T01:51:58.398Z,6.10
2018-12-20T01:54:26.414Z,6.62
2018-12-20T01:56:54.407Z,7.22
2018-12-20T01:59:22.432Z,6.75
2018-12-20T02:01:50.596Z,7.15
2018-12-20T02:04:18.194Z,7.20
2018-12-20T02:06:46.196Z,5.80
2018-12-20T02:09:14.356Z,6.12
2018-12-20T02:11:41.929Z,6.15
2018-12-20T02:14:10.292Z,7.70
2018-12-20T02:16:38.034Z,6.40
2018-12-20T02:19:06.186Z,6.43
2018-12-20T02:21:34.668Z,6.97
2018-12-20T02:24:02.631Z,7.43
2018-12-20T02:26:30.065Z,7.00
2018-12-20T02:28:58.135Z,8.55
2018-12-20T02:31:26.205Z,7.55
2018-12-20T02:33:53.516Z,6.95
2018-12-20T02:36:21.865Z,6.22
2018-12-20T02:38:49.559Z,6.68
2018-12-20T02:41:17.857Z,7.15
2018-12-20T02:43:46.150Z,6.32
2018-12-20T02:46:14.091Z,6.87
2018-12-20T02:48:44.183Z,6.70
2018-12-20T02:51:13.621Z,6.82
2018-12-20T02:53:41.412Z,6.60
2018-12-20T02:56:09.975Z,5.93
2018-12-20T02:58:38.170Z,6.20
2018-12-20T03:01:06.074Z,6.28
2018-12-20T03:03:33.565Z,5.10
2018-12-20T03:06:02.536Z,6.03
2018-12-20T03:08:30.084Z,6.00
2018-12-20T03:10:57.537Z,5.68
2018-12-20T03:13:25.765Z,6.05
2018-12-20T03:15:53.493Z,6.10
2018-12-20T03:18:21.871Z,3.92
2018-12-20T03:20:49.635Z,3.92
2018-12-20T03:23:19.344Z,5.15
2018-12-20T03:25:47.351Z,4.22
2018-12-20T03:28:15.492Z,5.53
2018-12-20T03:30:43.613Z,5.05
2018-12-20T03:33:11.626Z,5.22
2018-12-20T03:35:40.312Z,5.90
2018-12-20T03:38:07.756Z,6.55
2018-12-20T03:40:35.744Z,5.50
2018-12-20T03:43:04.408Z,5.65
2018-12-20T03:45:32.575Z,5.65
2018-12-20T03:48:00.165Z,6.50
2018-12-20T03:50:28.573Z,5.87
2018-12-20T03:52:56.867Z,4.55
2018-12-20T03:55:25.529Z,5.72
2018-12-20T03:57:53.696Z,5.28
2018-12-20T04:00:23.409Z,4.22
2018-12-20T04:02:51.497Z,5.12
2018-12-20T04:05:20.093Z,5.43
2018-12-20T04:07:48.225Z,5.60
2018-12-20T04:10:15.945Z,3.67
2018-12-20T04:12:43.909Z,5.20
2018-12-20T04:15:11.506Z,6.07
2018-12-20T04:17:39.001Z,5.37
2018-12-20T04:20:07.221Z,3.10
2018-12-20T04:22:35.735Z,4.15
2018-12-20T04:25:03.860Z,4.03
2018-12-20T04:27:32.277Z,4.82
2018-12-20T04:30:00.490Z,5.40
2018-12-20T04:32:28.322Z,4.53
2018-12-20T04:34:56.704Z,4.28
2018-12-20T04:37:24.419Z,4.30
2018-12-20T04:39:52.706Z,5.07
2018-12-20T04:42:20.820Z,4.50
2018-12-20T04:44:48.623Z,4.25
2018-12-20T04:47:16.423Z,5.50
2018-12-20T04:49:44.186Z,6.10
2018-12-20T04:52:12.279Z,5.65
2018-12-20T04:54:40.057Z,5.15
2018-12-20T04:57:08.109Z,5.85
2018-12-20T04:59:36.184Z,4.65
2018-12-20T05:02:03.950Z,4.93
2018-12-20T05:04:32.112Z,4.57
2018-12-20T05:06:59.953Z,4.60
2018-12-20T05:09:28.152Z,4.93
2018-12-20T05:11:55.929Z,4.70
2018-12-20T05:14:26.158Z,5.18
2018-12-20T05:16:51.850Z,4.87
2018-12-20T05:19:20.331Z,5.00
2018-12-20T05:21:48.403Z,5.30
2018-12-20T05:24:16.471Z,5.35
2018-12-20T05:26:44.605Z,4.70
2018-12-20T05:29:12.511Z,5.20
2018-12-20T05:31:40.477Z,4.60
2018-12-20T05:34:08.804Z,4.43
2018-12-20T05:36:36.825Z,4.90
2018-12-20T05:39:05.863Z,5.87
2018-12-20T05:41:34.898Z,5.37
2018-12-20T05:44:03.296Z,5.22
2018-12-20T05:46:32.254Z,5.10
2018-12-20T05:49:00.862Z,5.87
2018-12-20T05:51:29.021Z,5.60
2018-12-20T05:53:57.003Z,5.28
2018-12-20T05:56:25.572Z,5.85
2018-12-20T05:58:53.295Z,5.85
2018-12-20T06:01:21.273Z,5.57
2018-12-20T06:03:49.424Z,6.50
2018-12-20T06:06:17.159Z,5.50
2018-12-20T06:08:44.797Z,6.20
2018-12-20T06:11:12.846Z,5.72
2018-12-20T06:13:40.781Z,5.85
2018-12-20T06:16:12.683Z,6.43
2018-12-20T06:18:36.195Z,6.43
2018-12-20T06:21:04.212Z,6.35
2018-12-20T06:23:31.917Z,5.78
2018-12-20T06:26:00.077Z,6.53
2018-12-20T06:28:28.072Z,6.32
2018-12-20T06:30:57.670Z,6.60
2018-12-20T06:33:23.810Z,6.75
2018-12-20T06:35:51.753Z,6.03
2018-12-20T06:38:19.725Z,6.75
2018-12-20T06:40:47.749Z,6.40
2018-12-20T06:43:15.770Z,6.30
2018-12-20T06:45:43.516Z,5.93
2018-12-20T06:48:11.954Z,6.20
2018-12-20T06:50:39.961Z,5.90
2018-12-20T06:53:07.935Z,6.60
2018-12-20T06:55:36.005Z,6.57
2018-12-20T06:58:04.018Z,6.37
2018-12-20T07:00:31.988Z,6.28
2018-12-20T07:03:00.103Z,6.05
2018-12-20T07:05:28.070Z,6.12
2018-12-20T07:07:56.096Z,5.50
2018-12-20T07:10:24.102Z,5.40
2018-12-20T07:12:52.060Z,6.10
2018-12-20T07:15:20.583Z,6.37
2018-12-20T07:17:48.588Z,6.15
2018-12-20T07:20:16.564Z,5.60
2018-12-20T07:22:44.245Z,5.97
2018-12-20T07:25:12.276Z,5.90
2018-12-20T07:27:40.019Z,6.18
2018-12-20T07:30:08.810Z,6.22
2018-12-20T07:32:36.889Z,6.35
2018-12-20T07:35:05.278Z,6.55
2018-12-20T07:37:32.977Z,6.07
2018-12-20T07:40:00.855Z,5.82
2018-12-20T07:42:29.364Z,6.22
2018-12-20T07:44:57.343Z,6.40
2018-12-20T07:47:25.361Z,6.00
2018-12-20T07:49:53.489Z,7.25
2018-12-20T07:52:21.474Z,7.05
2018-12-20T07:54:49.702Z,6.87
2018-12-20T07:57:17.708Z,7.25
2018-12-20T07:59:45.394Z,7.50
2018-12-20T08:02:13.387Z,6.82
2018-12-20T08:04:41.404Z,7.75
2018-12-20T08:07:09.368Z,6.95
2018-12-20T08:09:37.388Z,6.65
2018-12-20T08:12:05.090Z,5.90
2018-12-20T08:14:33.288Z,5.62
2018-12-20T08:17:01.769Z,5.22
2018-12-20T08:19:36.252Z,6.37
2018-12-20T08:21:57.773Z,5.82
2018-12-20T08:24:25.817Z,6.70
2018-12-20T08:26:53.804Z,5.05
2018-12-20T08:29:21.255Z,4.87
2018-12-20T08:31:49.035Z,5.18
2018-12-20T08:34:18.142Z,4.47
2018-12-20T08:36:46.133Z,4.85
2018-12-20T08:39:13.900Z,4.87
2018-12-20T08:41:41.880Z,5.57
2018-12-20T08:44:09.831Z,5.28
2018-12-20T08:46:37.853Z,5.70
2018-12-20T08:49:05.865Z,5.35
2018-12-20T08:51:33.859Z,5.53
2018-12-20T08:54:01.841Z,4.35
2018-12-20T08:56:29.844Z,5.62
2018-12-20T08:58:57.861Z,5.87
2018-12-20T09:01:26.014Z,6.10
2018-12-20T09:03:53.983Z,5.37
2018-12-20T09:06:21.986Z,6.00
2018-12-20T09:08:50.283Z,5.22
2018-12-20T09:11:17.727Z,5.32
2018-12-20T09:13:45.439Z,5.57
2018-12-20T09:16:13.423Z,4.75
2018-12-20T09:18:41.401Z,5.55
2018-12-20T09:21:09.382Z,4.35
2018-12-20T09:23:37.597Z,5.95
2018-12-20T09:26:05.289Z,5.03
2018-12-20T09:28:33.052Z,5.97
2018-12-20T09:31:01.850Z,5.40
2018-12-20T09:33:29.580Z,4.87
2018-12-20T09:35:57.522Z,4.95
2018-12-20T09:38:25.509Z,4.72
2018-12-20T09:40:53.618Z,4.93
2018-12-20T09:43:21.583Z,4.95
2018-12-20T09:45:50.155Z,4.60
2018-12-20T09:48:17.894Z,5.15
2018-12-20T09:50:45.879Z,4.05
2018-12-20T09:53:13.854Z,4.57
2018-12-20T09:55:41.836Z,4.85
2018-12-20T09:58:09.807Z,4.37
2018-12-20T10:00:38.102Z,4.75
2018-12-20T10:03:06.376Z,4.25
2018-12-20T10:05:34.345Z,3.90
2018-12-20T10:08:02.421Z,4.25
2018-12-20T10:10:30.383Z,3.45
2018-12-20T10:12:58.399Z,4.43
2018-12-20T10:15:26.390Z,3.67
2018-12-20T10:17:54.373Z,4.00
2018-12-20T10:20:22.896Z,4.65
2018-12-20T10:22:50.679Z,4.03
2018-12-20T10:25:18.635Z,4.10
2018-12-20T10:27:46.602Z,3.90
2018-12-20T10:30:14.373Z,3.85
2018-12-20T10:32:41.832Z,3.95
2018-12-20T10:35:09.804Z,4.47
2018-12-20T10:37:37.824Z,4.30
2018-12-20T10:40:05.939Z,3.80
2018-12-20T10:42:33.947Z,4.22
2018-12-20T10:45:01.984Z,3.90
2018-12-20T10:47:29.965Z,3.70
2018-12-20T10:49:57.679Z,3.70
2018-12-20T10:52:25.655Z,4.05
2018-12-20T10:54:53.667Z,4.62
2018-12-20T10:57:21.370Z,3.70
2018-12-20T10:59:49.670Z,3.70
2018-12-20T11:02:35.070Z,3.22
2018-12-20T11:05:22.669Z,3.53
2018-12-20T11:07:56.610Z,3.80
2018-12-20T11:10:28.804Z,3.67
2018-12-20T11:12:56.823Z,3.87
2018-12-20T11:15:24.529Z,3.12
2018-12-20T11:17:52.534Z,3.40
2018-12-20T11:20:21.110Z,3.50
2018-12-20T11:22:48.621Z,3.83
2018-12-20T11:25:16.552Z,3.80
2018-12-20T11:27:45.121Z,3.55
2018-12-20T11:30:13.645Z,6.03
2018-12-20T11:32:41.984Z,5.45
2018-12-20T11:35:09.682Z,6.03
2018-12-20T11:37:37.671Z,7.22
2018-12-20T11:40:06.356Z,4.72
2018-12-20T11:42:34.331Z,4.10
2018-12-20T11:45:02.951Z,7.32
2018-12-20T11:47:31.447Z,5.47
2018-12-20T11:49:59.418Z,5.70
2018-12-20T11:52:27.204Z,4.22
2018-12-20T11:54:55.223Z,4.07
2018-12-20T11:57:23.029Z,3.35
2018-12-20T11:59:50.974Z,3.17
2018-12-20T12:02:24.481Z,4.05
2018-12-20T12:04:47.935Z,4.62
2018-12-20T12:07:15.991Z,3.30
2018-12-20T12:09:44.410Z,4.53
2018-12-20T12:12:11.862Z,3.78
2018-12-20T12:14:39.583Z,3.87
2018-12-20T12:17:08.005Z,3.30
2018-12-20T12:19:36.286Z,4.00
2018-12-20T12:22:04.246Z,3.97
2018-12-20T12:24:31.997Z,4.80
2018-12-20T12:26:59.998Z,4.53
2018-12-20T12:29:27.995Z,4.20
2018-12-20T12:31:56.320Z,4.72
2018-12-20T12:34:24.971Z,4.18
2018-12-20T12:36:52.766Z,4.62
2018-12-20T12:39:20.859Z,4.05
2018-12-20T12:41:49.401Z,4.20
2018-12-20T12:44:17.980Z,5.40
2018-12-20T12:46:45.987Z,4.72
2018-12-20T12:49:13.754Z,4.30
2018-12-20T12:51:43.770Z,4.20
2018-12-20T12:54:10.209Z,4.55
2018-12-20T12:56:38.709Z,3.75
2018-12-20T12:59:06.812Z,3.92
2018-12-20T13:01:35.223Z,4.28
2018-12-20T13:04:03.793Z,3.70
2018-12-20T13:06:31.793Z,3.65
2018-12-20T13:08:59.773Z,3.03
2018-12-20T13:11:27.843Z,3.60
2018-12-20T13:13:55.634Z,3.08
2018-12-20T13:16:23.927Z,3.67
2018-12-20T13:18:51.930Z,3.28
2018-12-20T13:21:19.684Z,3.25
2018-12-20T13:23:48.282Z,2.97
2018-12-20T13:26:16.271Z,3.47
2018-12-20T13:28:44.257Z,3.42
2018-12-20T13:31:12.244Z,3.30
2018-12-20T13:33:40.200Z,2.97
2018-12-20T13:36:08.155Z,3.30
2018-12-20T13:38:36.195Z,2.70
2018-12-20T13:41:04.156Z,3.60
2018-12-20T13:43:32.089Z,3.50
2018-12-20T13:46:00.414Z,4.62
2018-12-20T13:48:28.132Z,3.10
2018-12-20T13:50:55.862Z,3.65
2018-12-20T13:53:23.864Z,3.03
2018-12-20T13:55:52.364Z,3.40
2018-12-20T13:58:20.048Z,3.35
2018-12-20T14:00:48.444Z,3.28
2018-12-20T14:03:16.435Z,3.15
2018-12-20T14:05:44.413Z,3.55
2018-12-20T14:08:12.415Z,3.45
2018-12-20T14:10:40.432Z,3.65
2018-12-20T14:13:08.601Z,4.37
2018-12-20T14:15:36.335Z,4.53
2018-12-20T14:18:04.069Z,3.72
2018-12-20T14:20:32.069Z,3.33
2018-12-20T14:23:00.129Z,4.35
2018-12-20T14:25:27.853Z,4.43
2018-12-20T14:27:56.396Z,3.90
2018-12-20T14:30:24.391Z,4.70
2018-12-20T14:32:52.373Z,4.15
2018-12-20T14:35:20.677Z,4.72
2018-12-20T14:37:48.698Z,4.10
2018-12-20T14:40:16.409Z,4.53
2018-12-20T14:42:44.389Z,4.60
2018-12-20T14:45:12.367Z,4.47
2018-12-20T14:47:40.362Z,4.62
2018-12-20T14:50:08.771Z,3.78
2018-12-20T14:52:36.830Z,4.22
2018-12-20T14:55:05.516Z,4.22
2018-12-20T14:57:33.654Z,4.03
2018-12-20T15:00:01.635Z,4.18
2018-12-20T15:02:29.803Z,3.28
2018-12-20T15:04:57.216Z,3.28
2018-12-20T15:07:25.249Z,3.60
2018-12-20T15:09:53.328Z,3.25
2018-12-20T15:12:21.322Z,3.87
2018-12-20T15:14:50.023Z,4.10
2018-12-20T15:17:18.015Z,3.80
2018-12-20T15:19:45.731Z,3.58
2018-12-20T15:22:13.827Z,3.50
2018-12-20T15:24:41.783Z,3.00
2018-12-20T15:27:09.808Z,3.80
2018-12-20T15:29:38.463Z,4.20
2018-12-20T15:32:06.430Z,3.35
2018-12-20T15:34:34.374Z,3.95
2018-12-20T15:37:03.037Z,3.42
2018-12-20T15:39:30.785Z,2.92
2018-12-20T15:41:58.559Z,3.50
2018-12-20T15:44:27.148Z,4.28
2018-12-20T15:46:55.151Z,3.80
2018-12-20T15:49:23.083Z,3.65
2018-12-20T15:51:51.094Z,4.15
2018-12-20T15:54:19.077Z,3.83
2018-12-20T15:56:47.089Z,4.03
2018-12-20T15:59:15.211Z,3.62
2018-12-20T16:01:43.740Z,3.80
2018-12-20T16:04:11.820Z,3.87
2018-12-20T16:06:40.182Z,3.92
2018-12-20T16:09:08.194Z,3.65
2018-12-20T16:11:36.543Z,4.37
2018-12-20T16:14:04.596Z,5.50
2018-12-20T16:16:33.270Z,5.10
2018-12-20T16:19:05.038Z,4.75
2018-12-20T16:21:29.282Z,5.22
2018-12-20T16:23:57.320Z,4.45
2018-12-20T16:26:25.589Z,4.78
2018-12-20T16:28:54.490Z,4.35
2018-12-20T16:31:22.439Z,5.00
2018-12-20T16:33:50.471Z,4.00
2018-12-20T16:36:19.146Z,5.32
2018-12-20T16:38:47.114Z,4.97
2018-12-20T16:41:14.925Z,4.93
2018-12-20T16:43:42.724Z,5.12
2018-12-20T16:46:11.270Z,5.35
2018-12-20T16:48:39.845Z,5.18
2018-12-20T16:51:07.290Z,4.95
2018-12-20T16:53:35.274Z,4.72
2018-12-20T16:56:03.269Z,5.62
2018-12-20T16:58:31.316Z,3.75
2018-12-20T17:00:59.392Z,4.47
2018-12-20T17:03:27.017Z,4.75
2018-12-20T17:05:55.238Z,4.07
2018-12-20T17:08:22.913Z,3.75
2018-12-20T17:10:50.882Z,4.25
2018-12-20T17:13:19.231Z,4.10
2018-12-20T17:15:47.216Z,4.60
2018-12-20T17:18:14.919Z,3.92
2018-12-20T17:20:42.656Z,3.33
2018-12-20T17:23:11.178Z,3.85
2018-12-20T17:25:39.147Z,4.10
2018-12-20T17:28:07.138Z,3.90
2018-12-20T17:30:35.128Z,4.15
2018-12-20T17:33:04.980Z,4.43
2018-12-20T17:35:32.076Z,4.40
2018-12-20T17:37:59.780Z,4.53
2018-12-20T17:40:28.861Z,7.65
2018-12-20T17:42:55.776Z,11.40
2018-12-20T17:45:24.044Z,16.02
2018-12-20T17:47:52.323Z,7.35
2018-12-20T17:50:20.990Z,4.93
2018-12-20T17:52:48.985Z,4.90
2018-12-20T17:55:16.664Z,5.20
2018-12-20T17:57:44.674Z,4.35
2018-12-20T18:00:12.633Z,4.80
2018-12-20T18:02:40.554Z,5.80
2018-12-20T18:05:09.840Z,5.87
2018-12-20T18:07:36.606Z,5.15
2018-12-20T18:10:05.767Z,6.70
2018-12-20T18:12:33.743Z,7.20
2018-12-20T18:15:01.732Z,6.72
2018-12-20T18:17:29.685Z,6.57
2018-12-20T18:19:58.012Z,6.03
2018-12-20T18:22:26.056Z,6.50
2018-12-20T18:24:54.034Z,6.43
2018-12-20T18:27:22.069Z,6.10
2018-12-20T18:29:50.063Z,6.45
2018-12-20T18:32:18.001Z,5.60
2018-12-20T18:34:46.206Z,5.87
2018-12-20T18:37:13.916Z,6.22
2018-12-20T18:39:41.601Z,6.45
2018-12-20T18:42:09.692Z,6.90
2018-12-20T18:44:37.633Z,6.87
2018-12-20T18:47:05.640Z,6.70
2018-12-20T18:49:33.664Z,6.72
2018-12-20T18:52:01.399Z,7.03
2018-12-20T18:54:29.406Z,6.25
2018-12-20T18:56:57.411Z,7.22
2018-12-20T18:59:25.133Z,6.00
2018-12-20T19:01:53.105Z,5.70
2018-12-20T19:04:21.145Z,6.62
2018-12-20T19:06:48.872Z,6.60
2018-12-20T19:09:17.342Z,7.05
2018-12-20T19:11:45.672Z,5.75
2018-12-20T19:14:13.429Z,6.15
2018-12-20T19:16:41.157Z,5.80
2018-12-20T19:19:09.331Z,4.60
2018-12-20T19:21:37.320Z,6.82
2018-12-20T19:24:05.277Z,6.62
2018-12-20T19:26:33.445Z,6.37
2018-12-20T19:29:01.653Z,5.68
2018-12-20T19:31:29.669Z,6.05
2018-12-20T19:33:58.190Z,6.95
2018-12-20T19:36:26.242Z,6.37
2018-12-20T19:38:54.201Z,5.87
2018-12-20T19:41:22.258Z,5.97
2018-12-20T19:43:50.211Z,5.85
2018-12-20T19:46:18.144Z,4.87
2018-12-20T19:48:46.146Z,5.68
2018-12-20T19:51:13.838Z,5.53
2018-12-20T19:53:41.832Z,5.45
2018-12-20T19:56:09.802Z,5.47
2018-12-20T19:58:37.792Z,4.82
2018-12-20T20:01:05.750Z,5.68
2018-12-20T20:03:33.860Z,5.85
2018-12-20T20:06:01.822Z,5.62
2018-12-20T20:08:29.784Z,5.18
2018-12-20T20:10:57.867Z,5.07
2018-12-20T20:13:30.705Z,5.10
2018-12-20T20:15:53.527Z,5.60
2018-12-20T20:18:21.260Z,5.37
2018-12-20T20:20:49.283Z,6.12
2018-12-20T20:23:17.269Z,5.15
2018-12-20T20:25:45.277Z,5.00
2018-12-20T20:28:13.272Z,5.95
2018-12-20T20:30:41.537Z,5.18
2018-12-20T20:33:10.363Z,5.15
2018-12-20T20:35:38.357Z,4.78
2018-12-20T20:38:06.885Z,5.75
2018-12-20T20:40:34.868Z,5.37
2018-12-20T20:43:02.967Z,5.25
2018-12-20T20:45:30.831Z,4.50
2018-12-20T20:47:58.619Z,4.55
2018-12-20T20:50:26.336Z,4.07
2018-12-20T20:52:54.012Z,4.30
2018-12-20T20:55:22.990Z,3.33
2018-12-20T20:57:51.514Z,3.47
2018-12-20T21:00:19.219Z,3.83
2018-12-20T21:02:47.231Z,3.00
2018-12-20T21:05:14.993Z,4.07
2018-12-20T21:07:42.992Z,2.95
2018-12-20T21:10:11.649Z,3.50
2018-12-20T21:12:39.898Z,4.37
2018-12-20T21:15:09.219Z,4.65
2018-12-20T21:17:37.206Z,3.53
2018-12-20T21:20:05.628Z,3.70
2018-12-20T21:22:33.044Z,3.25
2018-12-20T21:25:01.081Z,4.25
2018-12-20T21:27:28.775Z,4.85
2018-12-20T21:29:56.747Z,3.92
2018-12-20T21:32:25.035Z,3.37
2018-12-20T21:34:53.069Z,4.03
2018-12-20T21:37:20.796Z,4.20
2018-12-20T21:39:48.773Z,4.32
2018-12-20T21:42:16.763Z,4.10
2018-12-20T21:44:44.868Z,4.00
2018-12-20T21:47:12.581Z,4.53
2018-12-20T21:49:41.079Z,4.62
2018-12-20T21:52:09.811Z,4.93
2018-12-20T21:54:37.816Z,6.15
2018-12-20T21:57:05.797Z,5.80
2018-12-20T21:59:33.311Z,5.20
2018-12-20T22:02:01.826Z,4.68
2018-12-20T22:04:29.799Z,4.25
2018-12-20T22:06:57.516Z,5.65
2018-12-20T22:09:25.488Z,5.55
2018-12-20T22:11:53.482Z,5.43
2018-12-20T22:14:22.097Z,5.03
2018-12-20T22:16:49.851Z,4.75
2018-12-20T22:19:17.792Z,5.05
2018-12-20T22:21:45.892Z,4.93
2018-12-20T22:24:14.253Z,5.90
2018-12-20T22:26:42.210Z,5.25
2018-12-20T22:29:10.022Z,5.22
2018-12-20T22:31:38.399Z,5.40
2018-12-20T22:34:06.491Z,5.78
2018-12-20T22:36:34.247Z,6.00
2018-12-20T22:39:02.231Z,6.45
2018-12-20T22:41:29.906Z,5.05
2018-12-20T22:43:58.062Z,6.85
2018-12-20T22:46:26.027Z,7.03
2018-12-20T22:48:53.786Z,7.43
2018-12-20T22:51:21.796Z,7.03
2018-12-20T22:53:49.835Z,6.70
2018-12-20T22:56:17.826Z,6.65
2018-12-20T22:58:45.755Z,7.85
2018-12-20T23:01:13.600Z,7.22
2018-12-20T23:03:41.579Z,6.07
2018-12-20T23:06:09.326Z,6.00
2018-12-20T23:08:36.829Z,6.07
2018-12-20T23:11:04.841Z,6.07
2018-12-20T23:13:32.799Z,6.07
2018-12-20T23:16:01.078Z,5.65
2018-12-20T23:18:29.053Z,5.25
2018-12-20T23:21:04.703Z,5.07
2018-12-20T23:23:24.735Z,6.47
2018-12-20T23:25:53.306Z,5.55
2018-12-20T23:28:21.269Z,4.35
2018-12-20T23:30:49.246Z,4.93
2018-12-20T23:33:17.838Z,4.50
2018-12-20T23:35:45.919Z,4.22
2018-12-20T23:38:13.701Z,4.03
2018-12-20T23:40:41.450Z,4.65
2018-12-20T23:43:09.426Z,4.22
2018-12-20T23:45:37.762Z,3.62
2018-12-20T23:48:05.804Z,4.12
2018-12-20T23:50:33.784Z,3.78
2018-12-20T23:53:02.316Z,4.97
2018-12-20T23:55:30.340Z,3.75
2018-12-20T23:57:58.319Z,4.37
